EDMA/AGB METAR and TAF weather

Enter ICAO airport designator
Station Type Date Time Source
EDMA METAR 2020/10/29 16:50 UTC NOAA

EDMA 291650Z 25005KT 9999 FEW028 10/08 Q1022


Station Type Date Time Source
EDMA Decoded METAR 2020/10/29 16:50 UTC NOAA

Augsburg, Germany (EDMA) 48-26N 010-56E 463M
Oct 29, 2020 - 12:50 PM EDT / 2020.10.29 1650 UTC
Wind: from the WSW (250 degrees) at 6 MPH (5 KT):0
Visibility: greater than 7 mile(s):0
Sky conditions: mostly clear
Temperature: 50 F (10 C)
Dew Point: 46 F (8 C)
Relative Humidity: 87%
Pressure (altimeter): 30.18 in. Hg (1022 hPa)
ob: EDMA 291650Z 25005KT 9999 FEW028 10/08 Q1022
cycle: 17

Station Type Date Time Source
EDMA TAF 2010/02/22 13:50 UTC NOAA

METAR EDMA 221350Z 23006KT CAVOK 10/02 Q0996

Example: see airport list